Time;durP1;ratioP1;P1;durP2;ratioP2;P2;SDS_P1;SDS_P2;PMS_P1;PMS_P2;Temp;Humidity;BMP_temperature;BMP_pressure;BME280_temperature;BME280_humidity;BME280_pressure;Samples;Min_cycle;Max_cycle;Signal;HPM_P1;HPM_P2
2021/07/03 00:00:08;;;;;;;8.30;7.53;;;;;23.20;100601.00;;;;2059484;28;20668;-66
2021/07/03 00:01:08;;;;;;;8.50;7.90;;;;;23.20;100600.00;;;;2059267;28;20273;-66
2021/07/03 00:02:09;;;;;;;9.10;8.20;;;;;23.20;100606.00;;;;2058759;28;20485;-66
2021/07/03 00:03:09;;;;;;;8.50;7.80;;;;;23.20;100602.00;;;;2058918;28;20218;-66
2021/07/03 00:04:09;;;;;;;9.10;8.33;;;;;23.20;100599.00;;;;2058861;28;20294;-66
2021/07/03 00:05:10;;;;;;;9.03;8.23;;;;;23.20;100598.00;;;;2060589;28;20235;-66
2021/07/03 00:06:10;;;;;;;8.37;7.53;;;;;23.20;100598.00;;;;2060226;28;20250;-65
2021/07/03 00:07:11;;;;;;;9.27;8.47;;;;;23.20;100595.00;;;;2060602;28;20219;-66
2021/07/03 00:08:11;;;;;;;8.37;7.77;;;;;23.20;100597.00;;;;2062998;28;20265;-66
2021/07/03 00:09:12;;;;;;;8.50;7.80;;;;;23.20;100592.00;;;;2058943;28;20215;-65
2021/07/03 00:10:12;;;;;;;8.30;7.60;;;;;23.20;100593.00;;;;2059111;28;20211;-66
2021/07/03 00:11:12;;;;;;;9.17;8.40;;;;;23.20;100600.00;;;;2059608;28;20675;-66
2021/07/03 00:12:13;;;;;;;8.23;7.63;;;;;23.20;100595.00;;;;2059586;28;20208;-65
2021/07/03 00:13:13;;;;;;;8.63;7.83;;;;;23.20;100596.00;;;;2059488;28;20218;-66
2021/07/03 00:14:13;;;;;;;8.70;8.00;;;;;23.10;100597.00;;;;2059335;28;20293;-66
2021/07/03 00:15:19;;;;;;;9.03;8.33;;;;;23.10;100598.00;;;;2058900;28;20854;-66
2021/07/03 00:16:19;;;;;;;7.80;7.10;;;;;23.10;100590.00;;;;2061416;28;20673;-66
2021/07/03 00:17:19;;;;;;;8.00;7.40;;;;;23.10;100596.00;;;;2062249;28;20238;-66
2021/07/03 00:18:20;;;;;;;8.23;7.53;;;;;23.20;100598.00;;;;2058756;28;20219;-66
2021/07/03 00:19:20;;;;;;;7.97;7.30;;;;;23.20;100595.00;;;;2059111;28;20249;-66
2021/07/03 00:20:21;;;;;;;8.70;8.00;;;;;23.20;100597.00;;;;2059134;28;20298;-66
2021/07/03 00:21:21;;;;;;;8.55;7.78;;;;;23.20;100588.00;;;;2059162;28;20695;-66
2021/07/03 00:22:22;;;;;;;8.00;7.40;;;;;23.20;100595.00;;;;2058429;28;20219;-66
2021/07/03 00:23:22;;;;;;;8.73;8.03;;;;;23.10;100588.00;;;;2058300;28;20296;-66
2021/07/03 00:24:22;;;;;;;7.70;7.10;;;;;23.10;100596.00;;;;2058154;28;20637;-65
2021/07/03 00:25:23;;;;;;;8.53;7.83;;;;;23.10;100597.00;;;;2058289;28;20223;-66
2021/07/03 00:26:23;;;;;;;8.17;7.57;;;;;23.10;100596.00;;;;2058121;28;20212;-66
2021/07/03 00:27:24;;;;;;;8.80;8.00;;;;;23.20;100594.00;;;;2059285;28;20222;-66
2021/07/03 00:28:24;;;;;;;8.77;7.97;;;;;23.20;100592.00;;;;2058398;28;20216;-66
2021/07/03 00:29:24;;;;;;;9.37;8.57;;;;;23.10;100597.00;;;;2062572;28;20632;-66
2021/07/03 00:30:25;;;;;;;8.97;8.23;;;;;23.10;100593.00;;;;2062274;28;20214;-66
2021/07/03 00:31:25;;;;;;;8.57;7.87;;;;;23.10;100604.00;;;;2059026;28;20226;-66
2021/07/03 00:32:25;;;;;;;8.67;7.97;;;;;23.10;100591.00;;;;2061017;28;20219;-66
2021/07/03 00:33:26;;;;;;;8.40;7.70;;;;;23.20;100595.00;;;;2062524;28;20223;-66
2021/07/03 00:34:26;;;;;;;9.03;8.23;;;;;23.20;100597.00;;;;2058870;28;20227;-66
2021/07/03 00:35:27;;;;;;;9.53;8.80;;;;;23.20;100596.00;;;;2060957;28;20305;-66
2021/07/03 00:36:27;;;;;;;8.30;7.67;;;;;23.20;100597.00;;;;2063453;28;20627;-66
2021/07/03 00:37:27;;;;;;;9.27;8.47;;;;;23.20;100596.00;;;;2061861;28;20218;-65
2021/07/03 00:38:28;;;;;;;10.27;8.60;;;;;23.10;100593.00;;;;2059607;28;20301;-66
2021/07/03 00:39:28;;;;;;;8.90;8.20;;;;;23.10;100603.00;;;;2059436;28;20589;-66
2021/07/03 00:40:28;;;;;;;9.20;8.40;;;;;23.20;100598.00;;;;2058625;28;20211;-66
2021/07/03 00:41:29;;;;;;;8.97;8.27;;;;;23.10;100605.00;;;;2058587;28;20222;-66
2021/07/03 00:42:29;;;;;;;8.60;7.93;;;;;23.20;100601.00;;;;2058840;28;20227;-66
2021/07/03 00:43:30;;;;;;;8.77;7.97;;;;;23.10;100601.00;;;;2058338;28;20670;-66
2021/07/03 00:44:33;;;;;;;8.73;8.07;;;;;23.10;100604.00;;;;2059440;28;20228;-66
2021/07/03 00:45:33;;;;;;;8.73;8.02;;;;;23.10;100601.00;;;;2059359;28;20215;-66
2021/07/03 00:46:34;;;;;;;9.10;8.40;;;;;23.10;100604.00;;;;2059471;28;20219;-66
2021/07/03 00:47:34;;;;;;;8.80;8.10;;;;;23.10;100602.00;;;;2059592;28;20695;-66
2021/07/03 00:48:35;;;;;;;8.80;8.10;;;;;23.10;100601.00;;;;2058811;28;20788;-66
2021/07/03 00:49:35;;;;;;;10.23;8.50;;;;;23.10;100601.00;;;;2058622;28;20220;-66
2021/07/03 00:50:36;;;;;;;10.00;9.10;;;;;23.10;100593.00;;;;2058084;28;20219;-65
2021/07/03 00:51:36;;;;;;;8.90;7.90;;;;;23.10;100604.00;;;;2058221;28;20238;-65
2021/07/03 00:52:37;;;;;;;9.23;8.43;;;;;23.10;100600.00;;;;2059748;28;20243;-66
2021/07/03 00:53:38;;;;;;;8.80;8.05;;;;;23.10;100608.00;;;;2060115;28;20237;-66
2021/07/03 00:54:39;;;;;;;8.80;8.00;;;;;23.10;100592.00;;;;2060471;28;20222;-66
2021/07/03 00:55:40;;;;;;;8.82;8.13;;;;;23.10;100599.00;;;;2060087;28;20211;-66
2021/07/03 00:56:40;;;;;;;9.60;8.70;;;;;23.10;100606.00;;;;2059893;28;20221;-66
2021/07/03 00:57:41;;;;;;;8.53;7.83;;;;;23.10;100593.00;;;;2059642;28;20207;-66
2021/07/03 00:58:41;;;;;;;8.60;7.90;;;;;23.10;100608.00;;;;2059782;28;20207;-66
2021/07/03 00:59:44;;;;;;;9.27;8.47;;;;;23.10;100598.00;;;;2055971;28;20467;-66
2021/07/03 01:00:45;;;;;;;8.50;7.70;;;;;23.10;100600.00;;;;2059597;28;20220;-66
2021/07/03 01:01:45;;;;;;;9.23;8.53;;;;;23.10;100590.00;;;;2060504;28;20247;-66
2021/07/03 01:02:45;;;;;;;8.70;8.07;;;;;23.10;100593.00;;;;2060608;28;20220;-66
2021/07/03 01:03:46;;;;;;;9.40;8.60;;;;;23.10;100593.00;;;;2060314;28;20242;-66
2021/07/03 01:04:46;;;;;;;9.67;8.53;;;;;23.10;100593.00;;;;2058596;28;20580;-66
2021/07/03 01:05:49;;;;;;;8.43;7.83;;;;;23.10;100604.00;;;;2061172;28;20693;-66
2021/07/03 01:06:49;;;;;;;8.98;8.25;;;;;23.10;100599.00;;;;2058433;28;20245;-66
2021/07/03 01:07:49;;;;;;;8.40;7.80;;;;;23.10;100594.00;;;;2065609;28;20211;-66
2021/07/03 01:08:50;;;;;;;8.30;7.67;;;;;23.10;100602.00;;;;2059783;28;20222;-66
2021/07/03 01:09:50;;;;;;;8.77;8.17;;;;;23.10;100597.00;;;;2059602;28;20694;-66
2021/07/03 01:10:51;;;;;;;8.43;7.73;;;;;23.10;100599.00;;;;2059217;28;20250;-66
2021/07/03 01:11:51;;;;;;;8.90;8.20;;;;;23.10;100599.00;;;;2059793;28;20243;-66
2021/07/03 01:12:51;;;;;;;8.40;7.80;;;;;23.10;100595.00;;;;2060289;28;20220;-66
2021/07/03 01:13:52;;;;;;;8.50;7.80;;;;;23.10;100597.00;;;;2060730;28;20223;-66
2021/07/03 01:14:52;;;;;;;8.27;7.67;;;;;23.10;100598.00;;;;2060950;28;20216;-66
2021/07/03 01:15:52;;;;;;;8.10;7.40;;;;;23.10;100596.00;;;;2060881;28;20234;-66
2021/07/03 01:16:53;;;;;;;8.37;7.70;;;;;23.10;100601.00;;;;2061012;28;20865;-66
2021/07/03 01:17:53;;;;;;;8.93;8.23;;;;;23.10;100602.00;;;;2060092;28;20214;-65
2021/07/03 01:18:54;;;;;;;8.53;7.83;;;;;23.10;100610.00;;;;2060208;28;20211;-65
2021/07/03 01:19:54;;;;;;;8.30;7.70;;;;;23.10;100609.00;;;;2060064;28;20705;-65
2021/07/03 01:20:54;;;;;;;9.00;8.23;;;;;23.10;100605.00;;;;2059845;28;20216;-66
2021/07/03 01:21:55;;;;;;;8.43;7.73;;;;;23.10;100608.00;;;;2060481;28;20341;-66
2021/07/03 01:22:55;;;;;;;8.37;7.77;;;;;23.00;100603.00;;;;2050450;28;20294;-66
2021/07/03 01:23:56;;;;;;;8.20;7.50;;;;;23.10;100608.00;;;;2067726;28;20294;-66
2021/07/03 01:24:56;;;;;;;8.33;7.63;;;;;23.10;100612.00;;;;2067122;28;20629;-66
2021/07/03 01:25:57;;;;;;;8.90;8.20;;;;;23.10;100608.00;;;;2059382;28;20673;-66
2021/07/03 01:26:58;;;;;;;8.02;7.43;;;;;23.10;100606.00;;;;2059398;28;20226;-66
2021/07/03 01:28:00;;;;;;;8.57;7.97;;;;;23.10;100607.00;;;;2059302;28;20246;-66
2021/07/03 01:29:00;;;;;;;9.00;8.20;;;;;23.00;100609.00;;;;2059518;28;20215;-65
2021/07/03 01:30:01;;;;;;;8.77;7.97;;;;;23.00;100608.00;;;;2060130;28;20228;-66
2021/07/03 01:31:01;;;;;;;8.37;7.67;;;;;23.10;100604.00;;;;2060293;28;20219;-66
2021/07/03 01:32:02;;;;;;;8.90;8.20;;;;;23.00;100609.00;;;;2060832;28;20215;-66
2021/07/03 01:33:03;;;;;;;8.40;7.70;;;;;23.00;100599.00;;;;2060654;28;20226;-66
2021/07/03 01:34:03;;;;;;;8.13;7.53;;;;;23.10;100601.00;;;;2058811;28;20211;-65
2021/07/03 01:35:04;;;;;;;7.73;7.10;;;;;23.10;100598.00;;;;2060056;28;20625;-66
2021/07/03 01:36:04;;;;;;;8.33;7.40;;;;;23.10;100600.00;;;;2058756;28;20943;-66
2021/07/03 01:37:05;;;;;;;7.77;7.17;;;;;23.10;100595.00;;;;2063490;28;20486;-66
2021/07/03 01:38:05;;;;;;;8.03;7.30;;;;;23.10;100601.00;;;;2061423;28;20354;-66
2021/07/03 01:39:06;;;;;;;8.20;7.50;;;;;23.10;100588.00;;;;2060762;28;20650;-66
2021/07/03 01:40:07;;;;;;;7.77;7.17;;;;;23.10;100599.00;;;;2060678;28;20293;-66
2021/07/03 01:41:07;;;;;;;8.50;7.83;;;;;23.10;100596.00;;;;2060322;28;20537;-66
2021/07/03 01:42:08;;;;;;;8.53;7.83;;;;;23.00;100593.00;;;;2060600;28;20458;-66
2021/07/03 01:43:08;;;;;;;8.20;7.50;;;;;23.10;100597.00;;;;2059917;28;20551;-66
2021/07/03 01:44:08;;;;;;;8.33;7.50;;;;;23.10;100596.00;;;;2059820;28;20294;-66
2021/07/03 01:45:09;;;;;;;7.80;6.80;;;;;23.00;100594.00;;;;2059906;28;20339;-66
2021/07/03 01:46:09;;;;;;;8.43;7.73;;;;;23.10;100592.00;;;;2059716;28;20215;-66
2021/07/03 01:47:10;;;;;;;8.80;8.10;;;;;23.10;100595.00;;;;2060399;28;20223;-66
2021/07/03 01:48:10;;;;;;;7.60;7.00;;;;;23.00;100597.00;;;;2060734;28;20238;-66
2021/07/03 01:49:11;;;;;;;9.07;8.27;;;;;23.00;100596.00;;;;2060521;28;20215;-66
2021/07/03 01:50:12;;;;;;;8.23;7.53;;;;;23.00;100591.00;;;;2060627;28;20215;-65
2021/07/03 01:51:12;;;;;;;8.20;7.50;;;;;23.10;100591.00;;;;2059741;28;20215;-65
2021/07/03 01:52:16;;;;;;;8.40;7.70;;;;;23.00;100593.00;;;;2059265;28;20218;-66
2021/07/03 01:53:17;;;;;;;7.72;7.10;;;;;23.00;100581.00;;;;2059854;28;20282;-66
2021/07/03 01:54:17;;;;;;;7.17;6.67;;;;;23.10;100590.00;;;;2059883;28;20277;-66
2021/07/03 01:55:18;;;;;;;7.97;7.37;;;;;23.00;100587.00;;;;2060450;28;20917;-66
2021/07/03 01:56:18;;;;;;;7.27;6.77;;;;;23.00;100590.00;;;;2060363;28;20225;-66
2021/07/03 01:57:18;;;;;;;7.73;6.83;;;;;23.00;100588.00;;;;2060614;28;20219;-66
2021/07/03 01:58:20;;;;;;;7.77;7.07;;;;;23.00;100589.00;;;;2060626;28;20309;-66
2021/07/03 01:59:21;;;;;;;7.70;7.10;;;;;23.00;100589.00;;;;2059330;28;20280;-66
2021/07/03 02:00:21;;;;;;;8.70;8.00;;;;;23.00;100583.00;;;;2058600;28;20215;-66
2021/07/03 02:01:21;;;;;;;7.50;6.90;;;;;23.00;100590.00;;;;2059640;28;20290;-66
2021/07/03 02:02:22;;;;;;;8.00;7.27;;;;;23.00;100597.00;;;;2059765;28;20220;-66
2021/07/03 02:03:22;;;;;;;7.47;6.87;;;;;23.00;100590.00;;;;2058891;28;20706;-66
2021/07/03 02:04:23;;;;;;;7.17;6.67;;;;;23.00;100591.00;;;;2059619;28;20681;-66
2021/07/03 02:05:23;;;;;;;7.20;6.60;;;;;23.00;100595.00;;;;2060164;28;20534;-66
2021/07/03 02:06:24;;;;;;;7.30;6.80;;;;;23.00;100589.00;;;;2063186;28;20341;-66
2021/07/03 02:07:24;;;;;;;7.57;6.87;;;;;23.00;100589.00;;;;2066306;28;20206;-66
2021/07/03 02:08:25;;;;;;;7.70;7.10;;;;;23.00;100594.00;;;;2060564;28;20233;-66
2021/07/03 02:09:25;;;;;;;7.40;6.90;;;;;23.00;100595.00;;;;2060365;28;20227;-66
2021/07/03 02:10:25;;;;;;;6.30;5.80;;;;;23.00;100589.00;;;;2060235;28;20253;-66
2021/07/03 02:11:26;;;;;;;7.10;6.60;;;;;23.00;100591.00;;;;2059959;28;20290;-66
2021/07/03 02:12:26;;;;;;;7.63;7.03;;;;;23.00;100583.00;;;;2059707;28;20215;-66
2021/07/03 02:13:27;;;;;;;7.37;6.77;;;;;23.00;100587.00;;;;2059573;28;20314;-66
2021/07/03 02:14:28;;;;;;;6.90;6.40;;;;;23.00;100586.00;;;;2063309;28;20317;-66
2021/07/03 02:15:28;;;;;;;7.50;6.90;;;;;23.00;100587.00;;;;2063470;28;20214;-66
2021/07/03 02:16:28;;;;;;;6.93;6.40;;;;;23.00;100582.00;;;;2060003;28;20211;-66
2021/07/03 02:17:29;;;;;;;7.07;6.47;;;;;23.00;100588.00;;;;2060468;28;20207;-66
2021/07/03 02:18:29;;;;;;;6.93;6.43;;;;;23.00;100589.00;;;;2060513;28;20211;-66
2021/07/03 02:19:29;;;;;;;7.63;7.03;;;;;23.00;100589.00;;;;2060412;28;20207;-66
2021/07/03 02:20:31;;;;;;;7.53;7.03;;;;;23.00;100587.00;;;;2059874;28;20315;-66
2021/07/03 02:21:32;;;;;;;6.90;6.40;;;;;23.00;100582.00;;;;2059579;28;20219;-66
2021/07/03 02:22:32;;;;;;;7.43;6.83;;;;;23.00;100593.00;;;;2059569;28;20210;-65
2021/07/03 02:23:32;;;;;;;7.03;6.43;;;;;23.00;100587.00;;;;2059607;28;20219;-66
2021/07/03 02:24:33;;;;;;;7.03;6.43;;;;;23.00;100586.00;;;;2059665;28;20219;-66
2021/07/03 02:25:33;;;;;;;6.93;6.43;;;;;23.00;100587.00;;;;2060270;28;20213;-66
2021/07/03 02:26:34;;;;;;;7.00;6.40;;;;;23.00;100580.00;;;;2060260;28;20347;-66
2021/07/03 02:27:34;;;;;;;7.57;6.90;;;;;23.00;100586.00;;;;2060376;28;20713;-66
2021/07/03 02:28:34;;;;;;;7.33;6.73;;;;;23.00;100582.00;;;;2060350;28;20226;-66
2021/07/03 02:29:34;;;;;;;6.80;6.30;;;;;23.00;100586.00;;;;2063161;28;20229;-66
2021/07/03 02:30:35;;;;;;;7.00;6.50;;;;;23.00;100588.00;;;;2063050;28;20321;-66
2021/07/03 02:31:35;;;;;;;7.40;6.80;;;;;23.00;100587.00;;;;2059213;28;20309;-66
2021/07/03 02:32:35;;;;;;;6.80;6.30;;;;;23.00;100598.00;;;;2059271;28;20231;-65
2021/07/03 02:33:36;;;;;;;7.17;6.63;;;;;23.00;100589.00;;;;2059745;28;20242;-66
2021/07/03 02:34:36;;;;;;;6.93;6.40;;;;;23.00;100587.00;;;;2058684;28;20717;-66
2021/07/03 02:35:36;;;;;;;7.30;6.70;;;;;23.00;100590.00;;;;2062541;28;20625;-65
2021/07/03 02:36:37;;;;;;;6.67;6.17;;;;;23.00;100586.00;;;;2061759;28;20699;-65
2021/07/03 02:37:37;;;;;;;6.73;6.23;;;;;23.00;100583.00;;;;2061464;28;20222;-66
2021/07/03 02:38:38;;;;;;;6.90;6.40;;;;;23.00;100595.00;;;;2059472;28;20207;-66
2021/07/03 02:39:38;;;;;;;7.37;6.77;;;;;23.00;100594.00;;;;2059200;28;20218;-66
2021/07/03 02:40:39;;;;;;;6.90;6.40;;;;;23.00;100592.00;;;;2059182;28;20324;-66
2021/07/03 02:41:39;;;;;;;6.50;6.00;;;;;23.00;100587.00;;;;2057484;28;20243;-65
2021/07/03 02:42:40;;;;;;;7.30;6.70;;;;;23.00;100596.00;;;;2058670;28;20215;-66
2021/07/03 02:43:40;;;;;;;7.33;6.73;;;;;23.00;100596.00;;;;2058710;28;20737;-66
2021/07/03 02:44:40;;;;;;;7.93;7.20;;;;;23.00;100593.00;;;;2059241;28;20587;-65
2021/07/03 02:45:41;;;;;;;7.37;6.77;;;;;23.00;100594.00;;;;2059272;28;20220;-65
2021/07/03 02:46:41;;;;;;;6.90;6.20;;;;;23.00;100602.00;;;;2059921;28;20302;-66
2021/07/03 02:47:41;;;;;;;6.63;6.13;;;;;23.00;100600.00;;;;2062903;28;20215;-65
2021/07/03 02:48:42;;;;;;;5.90;5.40;;;;;23.00;100602.00;;;;2063188;28;20214;-66
2021/07/03 02:49:42;;;;;;;6.97;6.47;;;;;23.00;100605.00;;;;2060084;28;20242;-66
2021/07/03 02:50:42;;;;;;;7.43;6.83;;;;;22.90;100600.00;;;;2059590;28;20230;-66
2021/07/03 02:51:43;;;;;;;6.57;6.07;;;;;23.00;100607.00;;;;2059458;28;20210;-65
2021/07/03 02:52:43;;;;;;;6.33;5.83;;;;;23.00;100606.00;;;;2059359;28;20254;-66
2021/07/03 02:53:44;;;;;;;6.90;6.40;;;;;23.00;100610.00;;;;2058848;28;20218;-66
2021/07/03 02:54:44;;;;;;;7.27;6.67;;;;;23.00;100609.00;;;;2059443;28;20302;-66
2021/07/03 02:55:44;;;;;;;6.20;5.70;;;;;22.90;100615.00;;;;2060109;28;20211;-66
2021/07/03 02:56:45;;;;;;;6.80;6.20;;;;;22.90;100612.00;;;;2060171;28;20854;-66
2021/07/03 02:57:45;;;;;;;6.40;5.80;;;;;22.90;100607.00;;;;2060114;28;20749;-66
2021/07/03 02:58:45;;;;;;;6.27;5.87;;;;;22.90;100608.00;;;;2059853;28;20225;-66
2021/07/03 02:59:46;;;;;;;7.10;6.40;;;;;22.90;100608.00;;;;2058987;28;20203;-66
2021/07/03 03:00:46;;;;;;;6.93;6.43;;;;;22.90;100613.00;;;;2058818;28;20292;-66
2021/07/03 03:01:46;;;;;;;6.30;5.80;;;;;22.90;100609.00;;;;2059168;28;20322;-65
2021/07/03 03:02:47;;;;;;;6.83;6.33;;;;;22.90;100608.00;;;;2059413;28;20223;-66
2021/07/03 03:03:47;;;;;;;6.60;6.10;;;;;22.90;100602.00;;;;2059446;28;20227;-66
2021/07/03 03:04:47;;;;;;;6.77;6.27;;;;;23.00;100606.00;;;;2060933;28;20269;-65
2021/07/03 03:05:48;;;;;;;5.83;5.43;;;;;22.90;100607.00;;;;2059974;28;20219;-66
2021/07/03 03:06:48;;;;;;;6.70;6.20;;;;;23.00;100603.00;;;;2065067;28;20229;-66
2021/07/03 03:07:48;;;;;;;7.03;6.47;;;;;22.90;100603.00;;;;2064691;28;20218;-66
2021/07/03 03:08:49;;;;;;;7.13;6.53;;;;;23.00;100610.00;;;;2058912;28;20233;-66
2021/07/03 03:09:49;;;;;;;8.10;6.20;;;;;23.00;100605.00;;;;2059167;28;20305;-66
2021/07/03 03:10:49;;;;;;;6.40;5.90;;;;;22.90;100601.00;;;;2059167;28;20222;-66
2021/07/03 03:11:50;;;;;;;6.47;5.87;;;;;22.90;100602.00;;;;2059217;28;20214;-66
2021/07/03 03:12:50;;;;;;;6.63;6.03;;;;;23.00;100603.00;;;;2059693;28;20579;-66
2021/07/03 03:13:50;;;;;;;6.60;6.00;;;;;23.00;100605.00;;;;2059951;28;20583;-65
2021/07/03 03:14:51;;;;;;;6.43;5.93;;;;;23.00;100604.00;;;;2059872;28;20219;-65
2021/07/03 03:15:51;;;;;;;6.30;5.80;;;;;23.00;100606.00;;;;2059862;28;20266;-66
2021/07/03 03:16:51;;;;;;;5.90;5.40;;;;;23.00;100607.00;;;;2059748;28;20215;-66
2021/07/03 03:17:52;;;;;;;5.40;5.00;;;;;23.00;100596.00;;;;2059155;28;20214;-66
2021/07/03 03:18:53;;;;;;;6.17;5.67;;;;;22.90;100602.00;;;;2059215;28;20219;-66
2021/07/03 03:19:53;;;;;;;6.38;5.88;;;;;22.90;100592.00;;;;2058902;28;20302;-66
2021/07/03 03:20:53;;;;;;;6.40;5.90;;;;;22.90;100593.00;;;;2058480;28;20227;-66
2021/07/03 03:21:54;;;;;;;6.60;6.10;;;;;22.90;100595.00;;;;2059333;28;20249;-66
2021/07/03 03:22:54;;;;;;;6.27;5.77;;;;;23.00;100597.00;;;;2059320;28;20675;-66
2021/07/03 03:23:55;;;;;;;6.90;6.30;;;;;22.90;100597.00;;;;2059497;28;21094;-66
2021/07/03 03:24:55;;;;;;;6.40;5.90;;;;;22.90;100587.00;;;;2059535;28;20683;-66
2021/07/03 03:25:55;;;;;;;6.33;5.87;;;;;22.90;100597.00;;;;2058565;28;20229;-66
2021/07/03 03:26:56;;;;;;;5.83;5.33;;;;;22.90;100597.00;;;;2059077;28;20223;-65
2021/07/03 03:27:56;;;;;;;6.20;5.70;;;;;22.90;100597.00;;;;2062869;28;20219;-65
2021/07/03 03:28:56;;;;;;;6.90;6.40;;;;;22.90;100587.00;;;;2062990;28;20226;-66
2021/07/03 03:29:57;;;;;;;5.60;5.20;;;;;22.90;100579.00;;;;2059399;28;20828;-65
2021/07/03 03:30:57;;;;;;;6.33;5.83;;;;;22.90;100581.00;;;;2059616;28;21327;-66
2021/07/03 03:31:57;;;;;;;6.20;5.70;;;;;22.90;100577.00;;;;2059908;28;20260;-66
2021/07/03 03:32:58;;;;;;;6.73;5.50;;;;;22.90;100574.00;;;;2058675;28;20358;-65
2021/07/03 03:33:58;;;;;;;6.57;6.00;;;;;22.90;100568.00;;;;2059792;28;20623;-66
2021/07/03 03:34:58;;;;;;;5.90;5.40;;;;;22.90;100573.00;;;;2055490;28;20590;-65
2021/07/03 03:35:59;;;;;;;6.40;5.90;;;;;22.90;100578.00;;;;2063241;28;20645;-65
2021/07/03 03:36:59;;;;;;;6.43;5.93;;;;;22.90;100573.00;;;;2061047;28;20301;-65
2021/07/03 03:37:59;;;;;;;6.07;5.63;;;;;23.00;100570.00;;;;2059978;28;20630;-65
2021/07/03 03:39:00;;;;;;;6.67;6.17;;;;;22.90;100573.00;;;;2059522;28;20219;-66
2021/07/03 03:40:00;;;;;;;6.00;5.50;;;;;22.90;100567.00;;;;2059765;28;20223;-66
2021/07/03 03:41:00;;;;;;;5.90;5.50;;;;;22.90;100568.00;;;;2059451;28;20294;-66
2021/07/03 03:42:01;;;;;;;6.00;5.60;;;;;22.90;100576.00;;;;2059691;28;20234;-66
2021/07/03 03:43:01;;;;;;;6.00;5.50;;;;;22.90;100569.00;;;;2059403;28;20223;-65
2021/07/03 03:44:01;;;;;;;6.47;5.87;;;;;22.90;100569.00;;;;2058986;28;20219;-65
2021/07/03 03:45:04;;;;;;;6.60;5.63;;;;;22.90;100564.00;;;;2059054;28;20223;-65
2021/07/03 03:46:05;;;;;;;5.75;5.35;;;;;22.90;100572.00;;;;2062603;28;20277;-65
2021/07/03 03:47:05;;;;;;;7.20;5.93;;;;;22.90;100569.00;;;;2062689;28;20330;-65
2021/07/03 03:48:05;;;;;;;5.93;5.43;;;;;23.00;100563.00;;;;2059726;28;20230;-66
2021/07/03 03:49:06;;;;;;;6.10;5.60;;;;;22.90;100558.00;;;;2059748;28;20713;-66
2021/07/03 03:50:07;;;;;;;6.03;5.53;;;;;22.90;100556.00;;;;2059812;28;20819;-65
2021/07/03 03:51:07;;;;;;;5.57;5.17;;;;;22.90;100564.00;;;;2059252;28;20225;-65
2021/07/03 03:52:09;;;;;;;6.40;5.80;;;;;22.90;100569.00;;;;2058734;28;20968;-65
2021/07/03 03:53:09;;;;;;;6.50;6.00;;;;;22.90;100560.00;;;;2058986;28;20706;-66
2021/07/03 03:54:10;;;;;;;6.50;6.00;;;;;22.90;100562.00;;;;2057938;28;20339;-65
2021/07/03 03:55:10;;;;;;;6.17;5.63;;;;;22.90;100558.00;;;;2058368;28;20273;-66
2021/07/03 03:56:11;;;;;;;6.30;5.70;;;;;22.90;100561.00;;;;2059519;28;20867;-66
2021/07/03 03:58:30;;;;;;;6.43;5.93;;;;;22.90;100553.00;;;;2058807;28;20215;-66
2021/07/03 03:59:30;;;;;;;5.97;5.50;;;;;22.90;100559.00;;;;2058319;28;20239;-66
2021/07/03 04:00:31;;;;;;;6.63;6.03;;;;;22.90;100557.00;;;;2058823;28;20203;-65
2021/07/03 04:01:31;;;;;;;6.17;5.57;;;;;22.90;100545.00;;;;2059206;28;20230;-66
2021/07/03 04:02:31;;;;;;;6.07;5.57;;;;;22.90;100548.00;;;;2059819;28;20239;-65
2021/07/03 04:03:31;;;;;;;6.57;5.97;;;;;22.90;100547.00;;;;2059718;28;20207;-66
2021/07/03 04:04:32;;;;;;;5.53;5.13;;;;;22.90;100561.00;;;;2059036;28;20227;-66
2021/07/03 04:05:32;;;;;;;6.07;5.60;;;;;22.90;100556.00;;;;2059131;28;20286;-66
2021/07/03 04:06:32;;;;;;;5.70;5.27;;;;;22.90;100561.00;;;;2061493;28;20210;-66
2021/07/03 04:07:33;;;;;;;6.43;5.83;;;;;22.90;100546.00;;;;2063635;28;20290;-65
2021/07/03 04:08:34;;;;;;;5.30;4.90;;;;;22.90;100549.00;;;;2059252;28;20594;-65
2021/07/03 04:09:35;;;;;;;6.20;5.70;;;;;22.90;100561.00;;;;2059290;28;20268;-65
2021/07/03 04:10:35;;;;;;;6.23;5.73;;;;;22.90;100548.00;;;;2057818;28;20226;-66
2021/07/03 04:11:35;;;;;;;6.10;5.60;;;;;22.90;100549.00;;;;2058588;28;20223;-65
2021/07/03 04:12:36;;;;;;;5.90;5.40;;;;;22.90;100540.00;;;;2059024;28;20297;-65
2021/07/03 04:13:36;;;;;;;6.23;5.73;;;;;22.90;100540.00;;;;2058966;28;20219;-65
2021/07/03 04:14:37;;;;;;;5.60;5.20;;;;;22.90;100543.00;;;;2058605;28;20613;-66
2021/07/03 04:15:37;;;;;;;5.50;5.10;;;;;22.90;100546.00;;;;2057882;28;20590;-66
2021/07/03 04:16:37;;;;;;;6.50;6.00;;;;;22.90;100543.00;;;;2058797;28;20216;-66
2021/07/03 04:17:37;;;;;;;6.40;5.80;;;;;22.90;100549.00;;;;2058793;28;20669;-66
2021/07/03 04:18:38;;;;;;;5.80;5.40;;;;;22.90;100542.00;;;;2058970;28;20836;-66
2021/07/03 04:19:38;;;;;;;5.77;5.37;;;;;22.90;100546.00;;;;2058214;28;20707;-66
2021/07/03 04:20:39;;;;;;;6.10;5.60;;;;;22.90;100541.00;;;;2057617;28;20673;-66
2021/07/03 04:21:39;;;;;;;6.20;5.70;;;;;22.90;100543.00;;;;2058213;28;20346;-66
2021/07/03 04:22:39;;;;;;;6.53;5.93;;;;;22.90;100539.00;;;;2058241;28;20948;-65
2021/07/03 04:23:40;;;;;;;5.70;5.20;;;;;22.90;100535.00;;;;2056930;28;20218;-65
2021/07/03 04:24:40;;;;;;;6.40;5.90;;;;;22.90;100537.00;;;;2061750;28;20221;-66
2021/07/03 04:25:40;;;;;;;6.80;5.60;;;;;22.90;100540.00;;;;2058217;28;20210;-66
2021/07/03 04:26:41;;;;;;;5.50;5.10;;;;;22.90;100532.00;;;;2058570;28;20215;-66
2021/07/03 04:27:41;;;;;;;6.13;5.63;;;;;22.80;100542.00;;;;2060426;28;20322;-66
2021/07/03 04:28:42;;;;;;;6.40;5.90;;;;;22.90;100543.00;;;;2060850;28;20688;-66
2021/07/03 04:29:42;;;;;;;5.60;5.10;;;;;22.90;100546.00;;;;2060920;28;20247;-66
2021/07/03 04:30:42;;;;;;;5.60;5.20;;;;;22.90;100550.00;;;;2060555;28;20222;-65
2021/07/03 04:31:43;;;;;;;5.87;5.37;;;;;22.90;100551.00;;;;2059144;28;20222;-66
2021/07/03 04:32:44;;;;;;;5.77;5.27;;;;;22.90;100549.00;;;;2058874;28;20269;-65
2021/07/03 04:33:44;;;;;;;5.50;5.10;;;;;22.90;100557.00;;;;2060389;28;20235;-66
2021/07/03 04:34:44;;;;;;;6.00;5.57;;;;;22.90;100552.00;;;;2063119;28;20458;-64
2021/07/03 04:35:45;;;;;;;5.70;5.30;;;;;22.90;100561.00;;;;2064544;28;20688;-66
2021/07/03 04:36:45;;;;;;;5.57;5.13;;;;;22.90;100549.00;;;;2062495;28;20219;-66
2021/07/03 04:37:45;;;;;;;5.47;5.07;;;;;22.90;100557.00;;;;2060832;28;20215;-66
2021/07/03 04:38:46;;;;;;;5.80;5.40;;;;;22.90;100554.00;;;;2060436;28;20230;-66
2021/07/03 04:39:46;;;;;;;5.90;5.47;;;;;22.90;100550.00;;;;2060474;28;20607;-65
2021/07/03 04:40:46;;;;;;;6.00;5.50;;;;;22.90;100544.00;;;;2060908;28;20649;-66
2021/07/03 04:41:47;;;;;;;6.10;5.40;;;;;22.90;100542.00;;;;2061093;28;20216;-65
2021/07/03 04:42:47;;;;;;;5.80;5.33;;;;;22.90;100539.00;;;;2061146;28;20223;-66
2021/07/03 04:43:47;;;;;;;6.37;5.87;;;;;22.90;100543.00;;;;2061112;28;20222;-65
2021/07/03 04:44:48;;;;;;;6.53;6.03;;;;;22.90;100540.00;;;;2060851;28;20226;-65
2021/07/03 04:45:48;;;;;;;5.73;5.33;;;;;22.90;100532.00;;;;2060259;28;21054;-66
2021/07/03 04:46:48;;;;;;;5.87;5.47;;;;;22.90;100535.00;;;;2060271;28;20761;-65
2021/07/03 04:47:49;;;;;;;6.10;5.60;;;;;22.90;100540.00;;;;2059788;28;20219;-66
2021/07/03 04:48:49;;;;;;;6.50;5.90;;;;;22.90;100539.00;;;;2060254;28;20223;-65
2021/07/03 04:49:49;;;;;;;5.80;5.30;;;;;22.90;100533.00;;;;2060912;28;20219;-66
2021/07/03 04:50:50;;;;;;;5.93;4.70;;;;;22.90;100535.00;;;;2060823;28;20232;-66
2021/07/03 04:51:50;;;;;;;6.10;5.70;;;;;22.90;100535.00;;;;2061053;28;20298;-66
2021/07/03 04:52:50;;;;;;;5.70;5.20;;;;;22.90;100530.00;;;;2061146;28;20211;-66
2021/07/03 04:53:51;;;;;;;5.70;5.30;;;;;22.90;100507.00;;;;2060240;28;20223;-66
2021/07/03 04:54:52;;;;;;;6.10;5.60;;;;;22.90;100535.00;;;;2060289;28;20688;-65
2021/07/03 04:55:52;;;;;;;5.65;5.25;;;;;22.90;100534.00;;;;2060233;28;20219;-66
2021/07/03 04:57:06;;;;;;;5.53;5.13;;;;;22.90;100529.00;;;;2060295;28;20215;-65
2021/07/03 04:58:07;;;;;;;6.78;6.07;;;;;22.90;100535.00;;;;2060017;28;21016;-66
2021/07/03 04:59:07;;;;;;;6.90;6.30;;;;;22.80;100527.00;;;;2060193;28;20207;-66
2021/07/03 05:00:08;;;;;;;5.77;5.37;;;;;22.90;100527.00;;;;2060634;28;20258;-66